sensor_id;sensor_type;location;lat;lon;timestamp;P1;durP1;ratioP1;P2;durP2;ratioP2
577;SDS011;275;48.492;9.214;2022-11-15T00:02:10;3.70;;;2.70;;
577;SDS011;275;48.492;9.214;2022-11-15T00:04:37;3.83;;;2.22;;
577;SDS011;275;48.492;9.214;2022-11-15T00:07:04;3.95;;;2.83;;
577;SDS011;275;48.492;9.214;2022-11-15T00:09:31;3.60;;;2.80;;
577;SDS011;275;48.492;9.214;2022-11-15T00:11:58;6.18;;;2.67;;
577;SDS011;275;48.492;9.214;2022-11-15T00:14:24;3.45;;;2.50;;
577;SDS011;275;48.492;9.214;2022-11-15T00:16:53;4.28;;;3.08;;
577;SDS011;275;48.492;9.214;2022-11-15T00:19:19;4.68;;;3.30;;
577;SDS011;275;48.492;9.214;2022-11-15T00:21:46;4.60;;;3.22;;
577;SDS011;275;48.492;9.214;2022-11-15T00:24:13;5.75;;;4.03;;
577;SDS011;275;48.492;9.214;2022-11-15T00:26:40;6.97;;;5.45;;
577;SDS011;275;48.492;9.214;2022-11-15T00:29:06;7.18;;;6.40;;
577;SDS011;275;48.492;9.214;2022-11-15T00:31:33;12.00;;;9.48;;
577;SDS011;275;48.492;9.214;2022-11-15T00:34:01;9.13;;;8.23;;
577;SDS011;275;48.492;9.214;2022-11-15T00:36:28;10.68;;;9.77;;
577;SDS011;275;48.492;9.214;2022-11-15T00:38:58;11.68;;;10.57;;
577;SDS011;275;48.492;9.214;2022-11-15T00:41:25;12.25;;;11.15;;
577;SDS011;275;48.492;9.214;2022-11-15T00:43:52;13.68;;;12.48;;
577;SDS011;275;48.492;9.214;2022-11-15T00:46:18;12.70;;;11.60;;
577;SDS011;275;48.492;9.214;2022-11-15T00:48:45;13.57;;;12.25;;
577;SDS011;275;48.492;9.214;2022-11-15T00:51:13;14.85;;;13.45;;
577;SDS011;275;48.492;9.214;2022-11-15T00:53:40;15.02;;;13.70;;
577;SDS011;275;48.492;9.214;2022-11-15T00:56:07;16.65;;;15.13;;
577;SDS011;275;48.492;9.214;2022-11-15T00:58:34;15.30;;;14.00;;
577;SDS011;275;48.492;9.214;2022-11-15T01:01:07;15.13;;;13.60;;
577;SDS011;275;48.492;9.214;2022-11-15T01:03:35;14.98;;;13.63;;
577;SDS011;275;48.492;9.214;2022-11-15T01:06:03;17.55;;;15.75;;
577;SDS011;275;48.492;9.214;2022-11-15T01:08:32;16.42;;;15.00;;
577;SDS011;275;48.492;9.214;2022-11-15T01:11:02;18.92;;;17.23;;
577;SDS011;275;48.492;9.214;2022-11-15T01:13:31;15.75;;;14.23;;
577;SDS011;275;48.492;9.214;2022-11-15T01:15:58;15.80;;;14.50;;
577;SDS011;275;48.492;9.214;2022-11-15T01:18:26;16.58;;;15.18;;
577;SDS011;275;48.492;9.214;2022-11-15T01:20:52;14.30;;;13.10;;
577;SDS011;275;48.492;9.214;2022-11-15T01:23:19;14.30;;;13.20;;
577;SDS011;275;48.492;9.214;2022-11-15T01:25:47;15.00;;;13.70;;
577;SDS011;275;48.492;9.214;2022-11-15T01:28:14;16.00;;;14.13;;
577;SDS011;275;48.492;9.214;2022-11-15T01:30:41;13.63;;;12.45;;
577;SDS011;275;48.492;9.214;2022-11-15T01:33:08;12.27;;;11.07;;
577;SDS011;275;48.492;9.214;2022-11-15T01:35:37;12.13;;;11.10;;
577;SDS011;275;48.492;9.214;2022-11-15T01:38:05;12.85;;;11.75;;
577;SDS011;275;48.492;9.214;2022-11-15T01:40:32;13.30;;;11.90;;
577;SDS011;275;48.492;9.214;2022-11-15T01:45:49;13.38;;;12.18;;
577;SDS011;275;48.492;9.214;2022-11-15T01:48:20;13.68;;;12.48;;
577;SDS011;275;48.492;9.214;2022-11-15T01:50:48;13.88;;;12.48;;
577;SDS011;275;48.492;9.214;2022-11-15T01:53:16;15.10;;;13.80;;
577;SDS011;275;48.492;9.214;2022-11-15T01:55:45;16.77;;;15.23;;
577;SDS011;275;48.492;9.214;2022-11-15T01:58:12;17.20;;;15.90;;
577;SDS011;275;48.492;9.214;2022-11-15T02:00:40;17.52;;;16.02;;
577;SDS011;275;48.492;9.214;2022-11-15T02:03:07;15.82;;;14.63;;
577;SDS011;275;48.492;9.214;2022-11-15T02:05:34;17.83;;;16.33;;
577;SDS011;275;48.492;9.214;2022-11-15T02:08:02;15.80;;;14.43;;
577;SDS011;275;48.492;9.214;2022-11-15T02:10:29;16.00;;;14.68;;
577;SDS011;275;48.492;9.214;2022-11-15T02:12:56;16.60;;;15.30;;
577;SDS011;275;48.492;9.214;2022-11-15T02:15:27;16.92;;;15.50;;
577;SDS011;275;48.492;9.214;2022-11-15T02:18:09;14.55;;;13.45;;
577;SDS011;275;48.492;9.214;2022-11-15T02:20:56;12.98;;;11.93;;
577;SDS011;275;48.492;9.214;2022-11-15T02:30:00;11.63;;;10.73;;
577;SDS011;275;48.492;9.214;2022-11-15T02:32:40;11.07;;;10.15;;
577;SDS011;275;48.492;9.214;2022-11-15T02:35:12;11.48;;;10.50;;
577;SDS011;275;48.492;9.214;2022-11-15T02:37:50;11.05;;;10.15;;
577;SDS011;275;48.492;9.214;2022-11-15T02:40:23;12.43;;;11.23;;
577;SDS011;275;48.492;9.214;2022-11-15T02:43:01;10.38;;;9.43;;
577;SDS011;275;48.492;9.214;2022-11-15T02:45:54;11.48;;;10.48;;
577;SDS011;275;48.492;9.214;2022-11-15T02:48:27;8.50;;;7.70;;
577;SDS011;275;48.492;9.214;2022-11-15T02:50:56;10.45;;;9.40;;
577;SDS011;275;48.492;9.214;2022-11-15T02:53:24;11.85;;;9.00;;
577;SDS011;275;48.492;9.214;2022-11-15T02:55:51;8.32;;;7.45;;
577;SDS011;275;48.492;9.214;2022-11-15T02:58:32;8.88;;;8.15;;
577;SDS011;275;48.492;9.214;2022-11-15T03:01:18;8.68;;;7.88;;
577;SDS011;275;48.492;9.214;2022-11-15T03:03:59;6.80;;;6.18;;
577;SDS011;275;48.492;9.214;2022-11-15T03:06:35;8.63;;;7.22;;
577;SDS011;275;48.492;9.214;2022-11-15T03:09:09;9.60;;;8.77;;
577;SDS011;275;48.492;9.214;2022-11-15T03:11:48;9.65;;;8.85;;
577;SDS011;275;48.492;9.214;2022-11-15T03:14:21;9.65;;;8.68;;
577;SDS011;275;48.492;9.214;2022-11-15T03:16:57;11.35;;;10.25;;
577;SDS011;275;48.492;9.214;2022-11-15T03:19:28;9.80;;;8.90;;
577;SDS011;275;48.492;9.214;2022-11-15T03:21:59;9.43;;;8.55;;
577;SDS011;275;48.492;9.214;2022-11-15T03:24:28;7.20;;;6.43;;
577;SDS011;275;48.492;9.214;2022-11-15T03:26:57;8.13;;;7.32;;
577;SDS011;275;48.492;9.214;2022-11-15T03:29:27;4.55;;;4.15;;
577;SDS011;275;48.492;9.214;2022-11-15T03:32:01;5.35;;;4.85;;
577;SDS011;275;48.492;9.214;2022-11-15T03:34:32;5.75;;;5.15;;
577;SDS011;275;48.492;9.214;2022-11-15T03:37:03;7.88;;;7.18;;
577;SDS011;275;48.492;9.214;2022-11-15T03:39:31;10.18;;;9.18;;
577;SDS011;275;48.492;9.214;2022-11-15T03:42:02;10.45;;;9.35;;
577;SDS011;275;48.492;9.214;2022-11-15T03:44:40;12.00;;;10.80;;
577;SDS011;275;48.492;9.214;2022-11-15T03:47:15;9.80;;;8.85;;
577;SDS011;275;48.492;9.214;2022-11-15T03:49:46;10.50;;;9.57;;
577;SDS011;275;48.492;9.214;2022-11-15T03:52:17;11.95;;;10.85;;
577;SDS011;275;48.492;9.214;2022-11-15T03:54:49;11.95;;;10.95;;
577;SDS011;275;48.492;9.214;2022-11-15T03:57:16;11.27;;;10.27;;
577;SDS011;275;48.492;9.214;2022-11-15T03:59:43;13.70;;;12.25;;
577;SDS011;275;48.492;9.214;2022-11-15T04:02:10;13.07;;;11.98;;
577;SDS011;275;48.492;9.214;2022-11-15T04:04:39;14.00;;;12.82;;
577;SDS011;275;48.492;9.214;2022-11-15T04:07:06;14.77;;;13.52;;
577;SDS011;275;48.492;9.214;2022-11-15T04:09:32;14.15;;;12.98;;
577;SDS011;275;48.492;9.214;2022-11-15T04:12:19;15.07;;;13.88;;
577;SDS011;275;48.492;9.214;2022-11-15T04:14:55;15.93;;;14.63;;
577;SDS011;275;48.492;9.214;2022-11-15T04:17:33;15.73;;;14.35;;
577;SDS011;275;48.492;9.214;2022-11-15T04:20:02;17.73;;;16.30;;
577;SDS011;275;48.492;9.214;2022-11-15T04:22:46;18.65;;;17.25;;
577;SDS011;275;48.492;9.214;2022-11-15T04:25:30;20.05;;;18.27;;
577;SDS011;275;48.492;9.214;2022-11-15T04:27:57;20.25;;;18.67;;
577;SDS011;275;48.492;9.214;2022-11-15T04:30:24;19.02;;;17.45;;
577;SDS011;275;48.492;9.214;2022-11-15T04:32:51;21.50;;;19.70;;
577;SDS011;275;48.492;9.214;2022-11-15T04:35:19;21.45;;;19.65;;
577;SDS011;275;48.492;9.214;2022-11-15T04:37:46;20.40;;;18.83;;
577;SDS011;275;48.492;9.214;2022-11-15T04:40:13;20.63;;;18.83;;
577;SDS011;275;48.492;9.214;2022-11-15T04:42:40;18.35;;;16.85;;
577;SDS011;275;48.492;9.214;2022-11-15T04:45:08;18.17;;;16.67;;
577;SDS011;275;48.492;9.214;2022-11-15T04:47:35;18.00;;;16.70;;
577;SDS011;275;48.492;9.214;2022-11-15T04:50:02;19.20;;;17.70;;
577;SDS011;275;48.492;9.214;2022-11-15T04:52:31;16.65;;;15.25;;
577;SDS011;275;48.492;9.214;2022-11-15T04:54:58;17.85;;;16.35;;
577;SDS011;275;48.492;9.214;2022-11-15T04:57:25;17.83;;;16.33;;
577;SDS011;275;48.492;9.214;2022-11-15T04:59:51;13.25;;;12.25;;
577;SDS011;275;48.492;9.214;2022-11-15T05:02:18;17.17;;;15.80;;
577;SDS011;275;48.492;9.214;2022-11-15T05:04:45;19.70;;;17.90;;
577;SDS011;275;48.492;9.214;2022-11-15T05:07:11;18.23;;;16.67;;
577;SDS011;275;48.492;9.214;2022-11-15T05:09:39;18.52;;;17.13;;
577;SDS011;275;48.492;9.214;2022-11-15T05:12:06;19.80;;;18.25;;
577;SDS011;275;48.492;9.214;2022-11-15T05:14:32;18.73;;;17.13;;
577;SDS011;275;48.492;9.214;2022-11-15T05:16:59;20.73;;;18.85;;
577;SDS011;275;48.492;9.214;2022-11-15T05:19:26;19.33;;;17.63;;
577;SDS011;275;48.492;9.214;2022-11-15T05:21:53;19.60;;;18.10;;
577;SDS011;275;48.492;9.214;2022-11-15T05:24:20;22.08;;;20.13;;
577;SDS011;275;48.492;9.214;2022-11-15T05:26:48;20.33;;;18.77;;
577;SDS011;275;48.492;9.214;2022-11-15T05:29:15;19.35;;;17.70;;
577;SDS011;275;48.492;9.214;2022-11-15T05:31:42;15.27;;;14.02;;
577;SDS011;275;48.492;9.214;2022-11-15T05:34:08;14.32;;;13.13;;
577;SDS011;275;48.492;9.214;2022-11-15T05:36:37;13.80;;;12.65;;
577;SDS011;275;48.492;9.214;2022-11-15T05:39:05;14.90;;;13.43;;
577;SDS011;275;48.492;9.214;2022-11-15T05:41:34;14.45;;;13.15;;
577;SDS011;275;48.492;9.214;2022-11-15T05:44:04;18.27;;;16.98;;
577;SDS011;275;48.492;9.214;2022-11-15T05:46:33;18.27;;;16.92;;
577;SDS011;275;48.492;9.214;2022-11-15T05:49:01;15.10;;;13.95;;
577;SDS011;275;48.492;9.214;2022-11-15T05:51:28;16.02;;;14.80;;
577;SDS011;275;48.492;9.214;2022-11-15T05:53:56;16.42;;;15.13;;
577;SDS011;275;48.492;9.214;2022-11-15T05:56:24;16.23;;;14.93;;
577;SDS011;275;48.492;9.214;2022-11-15T05:58:52;15.55;;;14.15;;
577;SDS011;275;48.492;9.214;2022-11-15T06:01:22;16.33;;;14.82;;
577;SDS011;275;48.492;9.214;2022-11-15T06:03:49;15.32;;;13.93;;
577;SDS011;275;48.492;9.214;2022-11-15T06:06:16;14.75;;;13.45;;
577;SDS011;275;48.492;9.214;2022-11-15T06:08:42;15.25;;;13.85;;
577;SDS011;275;48.492;9.214;2022-11-15T06:11:09;15.60;;;14.18;;
577;SDS011;275;48.492;9.214;2022-11-15T06:13:36;13.90;;;12.52;;
577;SDS011;275;48.492;9.214;2022-11-15T06:16:03;14.70;;;13.40;;
577;SDS011;275;48.492;9.214;2022-11-15T06:18:32;14.15;;;12.95;;
577;SDS011;275;48.492;9.214;2022-11-15T06:21:00;14.07;;;12.77;;
577;SDS011;275;48.492;9.214;2022-11-15T06:23:27;7.38;;;6.15;;
577;SDS011;275;48.492;9.214;2022-11-15T06:25:57;5.45;;;4.93;;
577;SDS011;275;48.492;9.214;2022-11-15T06:28:24;6.90;;;5.40;;
577;SDS011;275;48.492;9.214;2022-11-15T06:30:51;5.00;;;3.67;;
577;SDS011;275;48.492;9.214;2022-11-15T06:33:17;4.40;;;4.00;;
577;SDS011;275;48.492;9.214;2022-11-15T06:35:46;5.43;;;4.18;;
577;SDS011;275;48.492;9.214;2022-11-15T06:38:12;6.80;;;4.10;;
577;SDS011;275;48.492;9.214;2022-11-15T06:40:39;4.70;;;3.47;;
577;SDS011;275;48.492;9.214;2022-11-15T06:43:06;5.00;;;3.88;;
577;SDS011;275;48.492;9.214;2022-11-15T06:45:33;4.80;;;4.30;;
577;SDS011;275;48.492;9.214;2022-11-15T06:48:00;5.85;;;4.35;;
577;SDS011;275;48.492;9.214;2022-11-15T06:50:27;5.38;;;4.15;;
577;SDS011;275;48.492;9.214;2022-11-15T06:52:55;5.72;;;4.32;;
577;SDS011;275;48.492;9.214;2022-11-15T06:55:26;7.55;;;4.40;;
577;SDS011;275;48.492;9.214;2022-11-15T06:57:53;5.78;;;4.03;;
577;SDS011;275;48.492;9.214;2022-11-15T07:00:20;4.75;;;4.05;;
577;SDS011;275;48.492;9.214;2022-11-15T07:02:48;6.88;;;5.00;;
577;SDS011;275;48.492;9.214;2022-11-15T07:05:15;8.63;;;4.90;;
577;SDS011;275;48.492;9.214;2022-11-15T07:07:42;5.60;;;5.10;;
577;SDS011;275;48.492;9.214;2022-11-15T07:10:10;6.30;;;5.18;;
577;SDS011;275;48.492;9.214;2022-11-15T07:12:37;8.13;;;5.35;;
577;SDS011;275;48.492;9.214;2022-11-15T07:15:04;5.68;;;4.40;;
577;SDS011;275;48.492;9.214;2022-11-15T07:17:32;5.97;;;4.78;;
577;SDS011;275;48.492;9.214;2022-11-15T07:19:59;5.78;;;4.25;;
577;SDS011;275;48.492;9.214;2022-11-15T07:22:25;4.85;;;4.10;;
577;SDS011;275;48.492;9.214;2022-11-15T07:24:52;6.45;;;5.00;;
577;SDS011;275;48.492;9.214;2022-11-15T07:27:20;6.80;;;4.30;;
577;SDS011;275;48.492;9.214;2022-11-15T07:29:47;7.38;;;3.90;;
577;SDS011;275;48.492;9.214;2022-11-15T07:32:14;5.00;;;4.30;;
577;SDS011;275;48.492;9.214;2022-11-15T07:34:41;5.53;;;4.40;;
577;SDS011;275;48.492;9.214;2022-11-15T07:37:08;4.38;;;3.95;;
577;SDS011;275;48.492;9.214;2022-11-15T07:39:35;5.20;;;4.15;;
577;SDS011;275;48.492;9.214;2022-11-15T07:42:01;9.43;;;4.45;;
577;SDS011;275;48.492;9.214;2022-11-15T07:44:47;5.32;;;4.30;;
577;SDS011;275;48.492;9.214;2022-11-15T07:47:14;5.07;;;4.20;;
577;SDS011;275;48.492;9.214;2022-11-15T07:49:41;5.20;;;3.78;;
577;SDS011;275;48.492;9.214;2022-11-15T07:52:08;4.75;;;3.88;;
577;SDS011;275;48.492;9.214;2022-11-15T07:54:35;6.88;;;4.05;;
577;SDS011;275;48.492;9.214;2022-11-15T07:57:01;5.30;;;4.43;;
577;SDS011;275;48.492;9.214;2022-11-15T07:59:28;5.50;;;4.00;;
577;SDS011;275;48.492;9.214;2022-11-15T08:01:56;4.63;;;3.75;;
577;SDS011;275;48.492;9.214;2022-11-15T08:04:23;7.93;;;4.10;;
577;SDS011;275;48.492;9.214;2022-11-15T08:06:50;4.67;;;3.80;;
577;SDS011;275;48.492;9.214;2022-11-15T08:09:17;5.23;;;3.70;;
577;SDS011;275;48.492;9.214;2022-11-15T08:11:44;4.93;;;3.30;;
577;SDS011;275;48.492;9.214;2022-11-15T08:14:11;8.63;;;3.73;;
577;SDS011;275;48.492;9.214;2022-11-15T08:16:37;4.90;;;3.87;;
577;SDS011;275;48.492;9.214;2022-11-15T08:19:05;4.60;;;4.00;;
577;SDS011;275;48.492;9.214;2022-11-15T08:21:32;6.60;;;4.10;;
577;SDS011;275;48.492;9.214;2022-11-15T08:24:00;8.07;;;4.10;;
577;SDS011;275;48.492;9.214;2022-11-15T08:26:27;4.83;;;3.50;;
577;SDS011;275;48.492;9.214;2022-11-15T08:28:55;4.73;;;3.50;;
577;SDS011;275;48.492;9.214;2022-11-15T08:31:21;5.37;;;4.40;;
577;SDS011;275;48.492;9.214;2022-11-15T08:33:48;4.75;;;4.20;;
577;SDS011;275;48.492;9.214;2022-11-15T08:36:16;6.38;;;4.25;;
577;SDS011;275;48.492;9.214;2022-11-15T08:38:43;6.38;;;4.00;;
577;SDS011;275;48.492;9.214;2022-11-15T08:41:11;4.43;;;3.50;;
577;SDS011;275;48.492;9.214;2022-11-15T08:43:40;6.43;;;4.20;;
577;SDS011;275;48.492;9.214;2022-11-15T08:46:07;5.90;;;2.95;;
577;SDS011;275;48.492;9.214;2022-11-15T08:48:37;6.43;;;4.00;;
577;SDS011;275;48.492;9.214;2022-11-15T08:51:04;4.93;;;3.60;;
577;SDS011;275;48.492;9.214;2022-11-15T08:53:33;5.70;;;3.22;;
577;SDS011;275;48.492;9.214;2022-11-15T08:56:00;5.40;;;3.10;;
577;SDS011;275;48.492;9.214;2022-11-15T08:58:26;4.57;;;4.03;;
577;SDS011;275;48.492;9.214;2022-11-15T09:00:53;6.33;;;3.57;;
577;SDS011;275;48.492;9.214;2022-11-15T09:03:20;5.23;;;3.60;;
577;SDS011;275;48.492;9.214;2022-11-15T09:05:47;5.47;;;4.93;;
577;SDS011;275;48.492;9.214;2022-11-15T09:08:14;9.47;;;7.83;;
577;SDS011;275;48.492;9.214;2022-11-15T09:10:42;10.80;;;8.97;;
577;SDS011;275;48.492;9.214;2022-11-15T09:13:09;9.73;;;8.73;;
577;SDS011;275;48.492;9.214;2022-11-15T09:15:36;11.07;;;10.07;;
577;SDS011;275;48.492;9.214;2022-11-15T09:18:02;11.27;;;10.15;;
577;SDS011;275;48.492;9.214;2022-11-15T09:20:29;9.93;;;9.03;;
577;SDS011;275;48.492;9.214;2022-11-15T09:22:58;11.37;;;10.27;;
577;SDS011;275;48.492;9.214;2022-11-15T09:25:26;10.93;;;9.87;;
577;SDS011;275;48.492;9.214;2022-11-15T09:27:54;12.90;;;9.60;;
577;SDS011;275;48.492;9.214;2022-11-15T09:30:21;11.70;;;9.73;;
577;SDS011;275;48.492;9.214;2022-11-15T09:32:48;11.63;;;10.10;;
577;SDS011;275;48.492;9.214;2022-11-15T09:35:15;11.02;;;9.80;;
577;SDS011;275;48.492;9.214;2022-11-15T09:37:42;16.70;;;8.90;;
577;SDS011;275;48.492;9.214;2022-11-15T09:40:10;10.30;;;9.30;;
577;SDS011;275;48.492;9.214;2022-11-15T09:42:53;11.20;;;9.82;;
577;SDS011;275;48.492;9.214;2022-11-15T09:45:33;9.80;;;8.80;;
577;SDS011;275;48.492;9.214;2022-11-15T09:48:10;9.25;;;8.35;;
577;SDS011;275;48.492;9.214;2022-11-15T09:50:50;10.03;;;9.13;;
577;SDS011;275;48.492;9.214;2022-11-15T09:53:25;12.10;;;9.40;;
577;SDS011;275;48.492;9.214;2022-11-15T09:56:01;9.93;;;8.93;;
577;SDS011;275;48.492;9.214;2022-11-15T09:58:33;13.53;;;10.30;;
577;SDS011;275;48.492;9.214;2022-11-15T10:01:04;10.57;;;9.47;;
577;SDS011;275;48.492;9.214;2022-11-15T10:03:45;14.20;;;8.97;;
577;SDS011;275;48.492;9.214;2022-11-15T10:06:23;10.40;;;8.20;;
577;SDS011;275;48.492;9.214;2022-11-15T10:08:54;9.97;;;8.90;;
577;SDS011;275;48.492;9.214;2022-11-15T10:11:26;9.67;;;8.70;;
577;SDS011;275;48.492;9.214;2022-11-15T10:13:56;9.23;;;8.30;;
577;SDS011;275;48.492;9.214;2022-11-15T10:16:36;9.17;;;8.20;;
577;SDS011;275;48.492;9.214;2022-11-15T10:19:22;10.33;;;8.47;;
577;SDS011;275;48.492;9.214;2022-11-15T10:21:55;9.47;;;8.43;;
577;SDS011;275;48.492;9.214;2022-11-15T10:24:35;10.53;;;8.50;;
577;SDS011;275;48.492;9.214;2022-11-15T10:27:07;9.93;;;8.37;;
577;SDS011;275;48.492;9.214;2022-11-15T10:29:40;9.93;;;8.73;;
577;SDS011;275;48.492;9.214;2022-11-15T10:32:09;10.00;;;8.23;;
577;SDS011;275;48.492;9.214;2022-11-15T10:34:36;10.20;;;8.40;;
577;SDS011;275;48.492;9.214;2022-11-15T10:37:03;10.17;;;8.27;;
577;SDS011;275;48.492;9.214;2022-11-15T10:39:30;12.47;;;8.50;;
577;SDS011;275;48.492;9.214;2022-11-15T10:41:58;8.70;;;7.90;;
577;SDS011;275;48.492;9.214;2022-11-15T10:44:43;8.20;;;7.40;;
577;SDS011;275;48.492;9.214;2022-11-15T10:47:24;10.97;;;8.30;;
577;SDS011;275;48.492;9.214;2022-11-15T10:49:54;10.80;;;8.40;;
577;SDS011;275;48.492;9.214;2022-11-15T10:52:25;10.63;;;8.17;;
577;SDS011;275;48.492;9.214;2022-11-15T10:54:54;12.40;;;8.60;;
577;SDS011;275;48.492;9.214;2022-11-15T10:57:24;9.17;;;8.20;;
577;SDS011;275;48.492;9.214;2022-11-15T10:59:56;9.03;;;8.13;;
577;SDS011;275;48.492;9.214;2022-11-15T11:02:29;10.67;;;7.50;;
577;SDS011;275;48.492;9.214;2022-11-15T11:04:58;9.80;;;7.50;;
577;SDS011;275;48.492;9.214;2022-11-15T11:07:27;7.07;;;6.37;;
577;SDS011;275;48.492;9.214;2022-11-15T11:09:58;9.37;;;8.53;;
577;SDS011;275;48.492;9.214;2022-11-15T11:12:27;13.10;;;7.90;;
577;SDS011;275;48.492;9.214;2022-11-15T11:14:58;11.83;;;8.17;;
577;SDS011;275;48.492;9.214;2022-11-15T11:17:30;8.83;;;7.70;;
577;SDS011;275;48.492;9.214;2022-11-15T11:20:05;9.10;;;7.37;;
577;SDS011;275;48.492;9.214;2022-11-15T11:22:42;10.00;;;9.00;;
577;SDS011;275;48.492;9.214;2022-11-15T11:25:23;24.30;;;12.17;;
577;SDS011;275;48.492;9.214;2022-11-15T11:27:59;27.60;;;12.30;;
577;SDS011;275;48.492;9.214;2022-11-15T11:30:43;12.17;;;8.27;;
577;SDS011;275;48.492;9.214;2022-11-15T11:33:17;14.00;;;9.30;;
577;SDS011;275;48.492;9.214;2022-11-15T11:35:50;10.83;;;9.73;;
577;SDS011;275;48.492;9.214;2022-11-15T11:38:38;9.93;;;8.93;;
577;SDS011;275;48.492;9.214;2022-11-15T11:41:17;10.73;;;9.70;;
577;SDS011;275;48.492;9.214;2022-11-15T11:43:52;13.93;;;12.57;;
577;SDS011;275;48.492;9.214;2022-11-15T11:46:37;11.57;;;9.00;;
577;SDS011;275;48.492;9.214;2022-11-15T11:49:15;11.80;;;10.67;;
577;SDS011;275;48.492;9.214;2022-11-15T11:51:47;11.43;;;9.57;;
577;SDS011;275;48.492;9.214;2022-11-15T11:54:19;10.33;;;9.03;;
577;SDS011;275;48.492;9.214;2022-11-15T11:56:49;9.73;;;8.73;;
577;SDS011;275;48.492;9.214;2022-11-15T11:59:19;11.03;;;8.27;;
577;SDS011;275;48.492;9.214;2022-11-15T12:01:53;10.30;;;8.27;;
577;SDS011;275;48.492;9.214;2022-11-15T12:04:21;10.60;;;8.47;;
577;SDS011;275;48.492;9.214;2022-11-15T12:06:56;9.80;;;8.90;;
577;SDS011;275;48.492;9.214;2022-11-15T12:09:27;11.80;;;10.10;;
577;SDS011;275;48.492;9.214;2022-11-15T12:12:04;12.03;;;10.30;;
577;SDS011;275;48.492;9.214;2022-11-15T12:14:36;11.37;;;10.03;;
577;SDS011;275;48.492;9.214;2022-11-15T12:17:11;11.60;;;10.10;;
577;SDS011;275;48.492;9.214;2022-11-15T12:19:38;10.83;;;9.77;;
577;SDS011;275;48.492;9.214;2022-11-15T12:22:09;11.80;;;10.47;;
577;SDS011;275;48.492;9.214;2022-11-15T12:24:40;13.77;;;12.00;;
577;SDS011;275;48.492;9.214;2022-11-15T12:27:14;13.30;;;11.60;;
577;SDS011;275;48.492;9.214;2022-11-15T12:29:45;11.50;;;10.00;;
577;SDS011;275;48.492;9.214;2022-11-15T12:32:18;17.07;;;12.20;;
577;SDS011;275;48.492;9.214;2022-11-15T12:34:51;11.50;;;9.93;;
577;SDS011;275;48.492;9.214;2022-11-15T12:46:04;12.87;;;11.60;;
577;SDS011;275;48.492;9.214;2022-11-15T12:48:48;10.73;;;9.63;;
577;SDS011;275;48.492;9.214;2022-11-15T12:51:20;11.97;;;10.77;;
577;SDS011;275;48.492;9.214;2022-11-15T12:53:49;12.20;;;9.43;;
577;SDS011;275;48.492;9.214;2022-11-15T12:56:22;11.00;;;9.90;;
577;SDS011;275;48.492;9.214;2022-11-15T12:58:51;13.40;;;11.83;;
577;SDS011;275;48.492;9.214;2022-11-15T13:04:28;12.30;;;11.10;;
577;SDS011;275;48.492;9.214;2022-11-15T13:06:57;11.63;;;10.50;;
577;SDS011;275;48.492;9.214;2022-11-15T13:09:50;13.70;;;10.67;;
577;SDS011;275;48.492;9.214;2022-11-15T13:18:18;15.60;;;13.20;;
577;SDS011;275;48.492;9.214;2022-11-15T13:21:02;14.63;;;12.43;;
577;SDS011;275;48.492;9.214;2022-11-15T13:23:53;12.90;;;11.43;;
577;SDS011;275;48.492;9.214;2022-11-15T13:26:21;12.87;;;11.57;;
577;SDS011;275;48.492;9.214;2022-11-15T13:28:49;16.07;;;13.03;;
577;SDS011;275;48.492;9.214;2022-11-15T13:31:22;12.17;;;10.97;;
577;SDS011;275;48.492;9.214;2022-11-15T13:33:52;13.13;;;11.73;;
577;SDS011;275;48.492;9.214;2022-11-15T13:36:23;15.53;;;14.00;;
577;SDS011;275;48.492;9.214;2022-11-15T13:38:54;14.50;;;13.10;;
577;SDS011;275;48.492;9.214;2022-11-15T13:41:23;15.00;;;12.50;;
577;SDS011;275;48.492;9.214;2022-11-15T13:43:51;16.70;;;13.13;;
577;SDS011;275;48.492;9.214;2022-11-15T13:46:20;16.00;;;13.53;;
577;SDS011;275;48.492;9.214;2022-11-15T13:48:51;15.53;;;12.90;;
577;SDS011;275;48.492;9.214;2022-11-15T13:51:20;15.93;;;12.83;;
577;SDS011;275;48.492;9.214;2022-11-15T13:53:54;17.87;;;13.40;;
577;SDS011;275;48.492;9.214;2022-11-15T13:56:24;23.63;;;14.03;;
577;SDS011;275;48.492;9.214;2022-11-15T13:58:53;17.90;;;14.53;;
577;SDS011;275;48.492;9.214;2022-11-15T14:01:21;19.37;;;14.37;;
577;SDS011;275;48.492;9.214;2022-11-15T14:03:53;16.83;;;13.47;;
577;SDS011;275;48.492;9.214;2022-11-15T14:06:23;15.00;;;13.07;;
577;SDS011;275;48.492;9.214;2022-11-15T14:11:59;14.67;;;13.17;;
577;SDS011;275;48.492;9.214;2022-11-15T14:14:28;13.70;;;12.40;;
577;SDS011;275;48.492;9.214;2022-11-15T14:16:56;17.20;;;15.20;;
577;SDS011;275;48.492;9.214;2022-11-15T14:19:37;15.40;;;14.00;;
577;SDS011;275;48.492;9.214;2022-11-15T14:22:13;17.37;;;13.83;;
577;SDS011;275;48.492;9.214;2022-11-15T14:24:43;15.37;;;13.77;;
577;SDS011;275;48.492;9.214;2022-11-15T14:27:15;16.43;;;14.73;;
577;SDS011;275;48.492;9.214;2022-11-15T14:29:44;20.17;;;16.00;;
577;SDS011;275;48.492;9.214;2022-11-15T14:32:12;18.37;;;16.47;;
577;SDS011;275;48.492;9.214;2022-11-15T14:34:40;20.37;;;17.57;;
577;SDS011;275;48.492;9.214;2022-11-15T14:37:10;19.03;;;17.00;;
577;SDS011;275;48.492;9.214;2022-11-15T14:39:46;19.87;;;18.03;;
577;SDS011;275;48.492;9.214;2022-11-15T14:42:13;20.20;;;17.33;;
577;SDS011;275;48.492;9.214;2022-11-15T14:44:40;21.30;;;16.20;;
577;SDS011;275;48.492;9.214;2022-11-15T14:47:07;23.60;;;16.80;;
577;SDS011;275;48.492;9.214;2022-11-15T14:49:34;22.47;;;17.13;;
577;SDS011;275;48.492;9.214;2022-11-15T14:52:01;20.53;;;16.10;;
577;SDS011;275;48.492;9.214;2022-11-15T14:54:29;21.77;;;14.63;;
577;SDS011;275;48.492;9.214;2022-11-15T14:56:56;20.97;;;15.90;;
577;SDS011;275;48.492;9.214;2022-11-15T14:59:23;18.97;;;14.77;;
577;SDS011;275;48.492;9.214;2022-11-15T15:01:49;24.57;;;17.50;;
577;SDS011;275;48.492;9.214;2022-11-15T15:04:16;20.83;;;15.93;;
577;SDS011;275;48.492;9.214;2022-11-15T15:06:43;21.90;;;18.53;;
577;SDS011;275;48.492;9.214;2022-11-15T15:09:10;26.17;;;15.80;;
577;SDS011;275;48.492;9.214;2022-11-15T15:11:38;17.23;;;15.40;;
577;SDS011;275;48.492;9.214;2022-11-15T15:14:05;19.03;;;14.70;;
577;SDS011;275;48.492;9.214;2022-11-15T15:16:32;53.57;;;48.37;;
577;SDS011;275;48.492;9.214;2022-11-15T15:18:58;22.07;;;18.97;;
577;SDS011;275;48.492;9.214;2022-11-15T15:21:26;23.53;;;19.50;;
577;SDS011;275;48.492;9.214;2022-11-15T15:23:56;23.93;;;20.20;;
577;SDS011;275;48.492;9.214;2022-11-15T15:26:23;25.43;;;19.60;;
577;SDS011;275;48.492;9.214;2022-11-15T15:28:51;21.63;;;19.13;;
577;SDS011;275;48.492;9.214;2022-11-15T15:31:18;28.57;;;22.47;;
577;SDS011;275;48.492;9.214;2022-11-15T15:33:45;23.33;;;21.00;;
577;SDS011;275;48.492;9.214;2022-11-15T15:36:12;24.10;;;21.20;;
577;SDS011;275;48.492;9.214;2022-11-15T15:38:40;21.50;;;19.23;;
577;SDS011;275;48.492;9.214;2022-11-15T15:41:08;22.13;;;19.60;;
577;SDS011;275;48.492;9.214;2022-11-15T15:43:36;20.47;;;17.70;;
577;SDS011;275;48.492;9.214;2022-11-15T15:46:07;18.20;;;16.30;;
577;SDS011;275;48.492;9.214;2022-11-15T15:48:35;20.20;;;16.50;;
577;SDS011;275;48.492;9.214;2022-11-15T15:51:04;12.77;;;11.37;;
577;SDS011;275;48.492;9.214;2022-11-15T15:53:31;11.80;;;10.67;;
577;SDS011;275;48.492;9.214;2022-11-15T15:55:58;12.23;;;10.53;;
577;SDS011;275;48.492;9.214;2022-11-15T15:58:25;11.57;;;9.70;;
577;SDS011;275;48.492;9.214;2022-11-15T16:00:52;12.38;;;10.30;;
577;SDS011;275;48.492;9.214;2022-11-15T16:03:20;8.70;;;7.70;;
577;SDS011;275;48.492;9.214;2022-11-15T16:05:47;10.33;;;7.80;;
577;SDS011;275;48.492;9.214;2022-11-15T16:08:17;11.87;;;7.73;;
577;SDS011;275;48.492;9.214;2022-11-15T16:10:45;9.95;;;7.40;;
577;SDS011;275;48.492;9.214;2022-11-15T16:13:12;9.80;;;8.03;;
577;SDS011;275;48.492;9.214;2022-11-15T16:15:39;7.67;;;6.90;;